Time;durP1;ratioP1;P1;durP2;ratioP2;P2;SDS_P1;SDS_P2;PMS_P1;PMS_P2;Temp;Humidity;BMP_temperature;BMP_pressure;BME280_temperature;BME280_humidity;BME280_pressure;Samples;Min_cycle;Max_cycle;Signal;HPM_P1;HPM_P2
2023/05/01 00:00:08;;;;;;;12.23;5.72;;;10.50;99.90;;;;;;5020929;28;20038;-76
2023/05/01 00:02:34;;;;;;;11.15;5.60;;;10.50;99.90;;;;;;5029649;28;20457;-76
2023/05/01 00:05:00;;;;;;;8.95;5.35;;;10.50;99.90;;;;;;5025833;28;20087;-76
2023/05/01 00:07:29;;;;;;;9.95;5.88;;;10.40;99.90;;;;;;5009453;28;20083;-75
2023/05/01 00:09:55;;;;;;;8.55;5.45;;;10.40;99.90;;;;;;5015639;28;20037;-75
2023/05/01 00:12:21;;;;;;;10.25;5.70;;;10.40;99.90;;;;;;5037203;28;20044;-76
2023/05/01 00:14:46;;;;;;;9.95;5.75;;;11.30;99.90;;;;;;5004839;28;20037;-76
2023/05/01 00:17:12;;;;;;;11.90;5.95;;;10.40;99.90;;;;;;5027610;28;20033;-74
2023/05/01 00:19:37;;;;;;;13.45;6.03;;;10.30;99.90;;;;;;5029531;28;20049;-76
2023/05/01 00:22:03;;;;;;;9.30;5.93;;;10.30;99.90;;;;;;5024062;28;20120;-75
2023/05/01 00:24:28;;;;;;;11.20;5.70;;;10.30;99.90;;;;;;5027222;28;20036;-76
2023/05/01 00:26:54;;;;;;;10.00;5.97;;;10.30;99.90;;;;;;5029972;28;20033;-76
2023/05/01 00:29:20;;;;;;;9.73;6.05;;;10.30;99.90;;;;;;5045553;28;20138;-75
2023/05/01 00:31:46;;;;;;;9.77;5.40;;;10.20;99.90;;;;;;5033127;28;20048;-76
2023/05/01 00:34:11;;;;;;;10.27;6.40;;;10.20;99.90;;;;;;5028957;28;20036;-76
2023/05/01 00:36:37;;;;;;;11.23;6.50;;;10.20;99.90;;;;;;5033523;28;20047;-75
2023/05/01 00:39:03;;;;;;;12.50;6.63;;;10.10;99.90;;;;;;5019064;28;20120;-75
2023/05/01 00:41:28;;;;;;;10.05;5.82;;;10.10;99.90;;;;;;5015432;28;20045;-75
2023/05/01 00:43:54;;;;;;;10.23;6.03;;;10.10;99.90;;;;;;5023861;28;20037;-75
2023/05/01 00:46:20;;;;;;;12.05;6.15;;;10.10;99.90;;;;;;5016599;28;20043;-75
2023/05/01 00:48:45;;;;;;;10.95;6.03;;;10.10;99.90;;;;;;5027693;28;20113;-75
2023/05/01 00:51:12;;;;;;;10.25;6.22;;;10.10;99.90;;;;;;5024821;28;20108;-75
2023/05/01 00:53:40;;;;;;;10.07;5.80;;;10.00;99.90;;;;;;5024017;28;20495;-75
2023/05/01 00:56:06;;;;;;;11.50;6.35;;;10.00;99.90;;;;;;5022528;28;20566;-75
2023/05/01 00:58:31;;;;;;;9.75;6.20;;;10.00;99.90;;;;;;5042991;28;20041;-74
2023/05/01 01:00:57;;;;;;;12.25;6.28;;;9.90;99.90;;;;;;5014187;28;20041;-75
2023/05/01 01:03:23;;;;;;;11.65;6.45;;;10.00;99.90;;;;;;5024435;28;20073;-75
2023/05/01 01:06:18;;;;;;;11.15;6.28;;;9.90;99.90;;;;;;5021469;28;20037;-75
2023/05/01 01:09:08;;;;;;;11.00;6.53;;;9.90;99.90;;;;;;5021795;28;20080;-75
2023/05/01 01:12:33;;;;;;;10.95;6.38;;;9.90;99.90;;;;;;5015867;28;20049;-75
2023/05/01 01:15:07;;;;;;;12.70;6.55;;;9.90;99.90;;;;;;4956665;28;20157;-75
2023/05/01 01:17:58;;;;;;;11.68;5.75;;;9.80;99.90;;;;;;5020990;28;20046;-75
2023/05/01 01:20:29;;;;;;;9.60;5.93;;;9.80;99.90;;;;;;5023753;28;20049;-75
2023/05/01 01:23:13;;;;;;;10.43;5.82;;;9.80;99.90;;;;;;5035248;28;20033;-75
2023/05/01 01:26:01;;;;;;;10.38;5.47;;;9.80;99.90;;;;;;5028097;28;20041;-75
2023/05/01 01:28:57;;;;;;;13.43;6.30;;;9.80;99.90;;;;;;5025319;28;20111;-75
2023/05/01 01:31:40;;;;;;;10.30;5.60;;;9.80;99.90;;;;;;5016628;28;20037;-75
2023/05/01 01:34:25;;;;;;;8.48;5.28;;;9.70;99.90;;;;;;5027746;28;20041;-75
2023/05/01 01:37:10;;;;;;;10.65;5.28;;;9.70;99.90;;;;;;5015966;28;20051;-75
2023/05/01 01:39:47;;;;;;;10.93;6.03;;;9.70;99.90;;;;;;5040032;28;20052;-75
2023/05/01 01:42:18;;;;;;;9.98;6.45;;;9.70;99.90;;;;;;5026512;28;20052;-75
2023/05/01 01:44:51;;;;;;;11.82;5.63;;;9.70;99.90;;;;;;5027105;28;20072;-75
2023/05/01 01:47:19;;;;;;;10.77;5.25;;;9.60;99.90;;;;;;5032116;28;20409;-75
2023/05/01 01:49:48;;;;;;;10.93;5.72;;;9.60;99.90;;;;;;5041914;28;20037;-75
2023/05/01 01:52:16;;;;;;;14.75;6.15;;;9.60;99.90;;;;;;5027689;28;20539;-75
2023/05/01 01:54:47;;;;;;;9.48;6.05;;;9.70;99.90;;;;;;5021827;28;20041;-75
2023/05/01 01:57:15;;;;;;;10.07;5.90;;;9.60;99.90;;;;;;5028695;28;20040;-75
2023/05/01 01:59:42;;;;;;;9.75;5.57;;;9.60;99.90;;;;;;5025555;28;20081;-74
2023/05/01 02:02:08;;;;;;;10.38;5.55;;;9.60;99.90;;;;;;5029285;28;20036;-75
2023/05/01 02:04:35;;;;;;;10.40;5.75;;;9.60;99.90;;;;;;5042035;28;20045;-75
2023/05/01 02:07:01;;;;;;;12.52;5.70;;;9.60;99.90;;;;;;5029737;28;20037;-75
2023/05/01 02:09:28;;;;;;;11.95;5.53;;;9.60;99.90;;;;;;5005496;28;20405;-75
2023/05/01 02:11:54;;;;;;;9.88;5.80;;;9.50;99.90;;;;;;5025463;28;20060;-75
2023/05/01 02:14:21;;;;;;;13.10;5.85;;;9.60;99.90;;;;;;5025797;28;20393;-75
2023/05/01 02:16:49;;;;;;;11.98;5.90;;;9.50;99.90;;;;;;5013579;28;20486;-75
2023/05/01 02:19:15;;;;;;;12.23;6.60;;;9.50;99.90;;;;;;5025206;28;20397;-76
2023/05/01 02:21:41;;;;;;;9.15;5.70;;;9.50;99.90;;;;;;5040307;28;20080;-75
2023/05/01 02:24:09;;;;;;;10.00;5.47;;;9.50;99.90;;;;;;5023153;28;20044;-76
2023/05/01 02:26:49;;;;;;;12.07;6.00;;;9.50;99.90;;;;;;5043439;28;20045;-75
2023/05/01 02:29:14;;;;;;;10.43;5.63;;;9.50;99.90;;;;;;5021624;28;20045;-75
2023/05/01 02:31:40;;;;;;;9.95;5.90;;;9.50;99.90;;;;;;5024741;28;20484;-75
2023/05/01 02:34:05;;;;;;;13.13;6.63;;;9.40;99.90;;;;;;5031244;28;20041;-76
2023/05/01 02:36:32;;;;;;;10.05;5.50;;;9.40;99.90;;;;;;5028609;28;20036;-76
2023/05/01 02:38:59;;;;;;;12.55;6.10;;;9.40;99.90;;;;;;5016977;28;20049;-75
2023/05/01 02:41:26;;;;;;;17.45;6.00;;;9.40;99.90;;;;;;5003359;28;20048;-74
2023/05/01 02:44:00;;;;;;;11.93;5.65;;;9.40;99.90;;;;;;5018694;28;20120;-75
2023/05/01 02:46:26;;;;;;;10.88;5.63;;;9.40;99.90;;;;;;5017939;28;20049;-75
2023/05/01 02:48:53;;;;;;;8.35;5.63;;;9.40;99.90;;;;;;5019333;28;20041;-75
2023/05/01 02:51:21;;;;;;;10.70;5.82;;;9.40;99.90;;;;;;5014837;28;20424;-75
2023/05/01 02:53:47;;;;;;;12.98;5.53;;;9.30;99.90;;;;;;5021834;28;20049;-75
2023/05/01 02:56:13;;;;;;;11.95;5.25;;;9.30;99.90;;;;;;5028929;28;20497;-74
2023/05/01 02:58:39;;;;;;;11.27;5.63;;;9.30;99.90;;;;;;5018042;28;20069;-75
2023/05/01 03:01:05;;;;;;;11.77;5.85;;;9.30;99.90;;;;;;5012797;28;20056;-75
2023/05/01 03:03:31;;;;;;;13.73;5.97;;;9.30;99.90;;;;;;5025768;28;20557;-74
2023/05/01 03:05:57;;;;;;;12.23;6.05;;;9.30;99.90;;;;;;5028207;28;20120;-75
2023/05/01 03:08:22;;;;;;;13.30;6.20;;;9.30;99.90;;;;;;5031124;28;20037;-75
2023/05/01 03:10:48;;;;;;;9.73;5.43;;;9.20;99.90;;;;;;5005131;28;20045;-75
2023/05/01 03:13:13;;;;;;;14.85;6.30;;;9.20;99.90;;;;;;5008263;28;20095;-75
2023/05/01 03:15:40;;;;;;;9.95;5.40;;;9.20;99.90;;;;;;5011021;28;20049;-75
2023/05/01 03:18:05;;;;;;;8.35;5.60;;;9.10;99.90;;;;;;5025665;28;20049;-75
2023/05/01 03:20:31;;;;;;;9.52;5.38;;;9.10;99.90;;;;;;5017900;28;20051;-75
2023/05/01 03:22:57;;;;;;;9.60;5.78;;;9.10;99.90;;;;;;5007482;28;20117;-75
2023/05/01 03:25:25;;;;;;;12.15;6.15;;;9.10;99.90;;;;;;5042484;28;20037;-75
2023/05/01 03:27:51;;;;;;;7.78;5.65;;;9.10;99.90;;;;;;5011172;28;20071;-75
2023/05/01 03:30:16;;;;;;;11.25;5.95;;;9.00;99.90;;;;;;5012277;28;20049;-75
2023/05/01 03:32:42;;;;;;;13.90;6.40;;;9.10;99.90;;;;;;5007955;28;20509;-75
2023/05/01 03:35:08;;;;;;;10.85;5.50;;;9.10;99.90;;;;;;5009327;28;20033;-75
2023/05/01 03:37:34;;;;;;;11.43;6.00;;;9.00;99.90;;;;;;5030659;28;20048;-75
2023/05/01 03:39:59;;;;;;;14.27;5.97;;;9.00;99.90;;;;;;5021343;28;20034;-75
2023/05/01 03:42:25;;;;;;;10.50;6.05;;;9.00;99.90;;;;;;5018650;28;20075;-75
2023/05/01 03:44:51;;;;;;;11.15;5.88;;;9.00;99.90;;;;;;5024728;28;21482;-75
2023/05/01 03:47:18;;;;;;;9.23;5.40;;;8.90;99.90;;;;;;5026505;28;20179;-75
2023/05/01 03:49:44;;;;;;;11.27;5.85;;;8.90;99.90;;;;;;5029300;28;20568;-74
2023/05/01 03:52:10;;;;;;;11.02;5.90;;;8.90;99.90;;;;;;5019428;28;20175;-73
2023/05/01 03:54:37;;;;;;;11.50;5.75;;;8.90;99.90;;;;;;5035894;28;20056;-75
2023/05/01 03:57:03;;;;;;;13.13;6.35;;;8.90;99.90;;;;;;5014931;28;20045;-76
2023/05/01 03:59:29;;;;;;;11.57;5.97;;;8.80;99.90;;;;;;5003575;28;20128;-76
2023/05/01 04:01:55;;;;;;;11.57;6.00;;;8.80;99.90;;;;;;5027974;28;20167;-76
2023/05/01 04:04:20;;;;;;;10.18;6.30;;;8.80;99.90;;;;;;5003772;28;20052;-75
2023/05/01 04:06:48;;;;;;;9.25;5.80;;;8.80;99.90;;;;;;5015257;28;20038;-76
2023/05/01 04:09:14;;;;;;;13.18;5.95;;;8.80;99.90;;;;;;5047880;28;20116;-75
2023/05/01 04:11:40;;;;;;;13.75;6.00;;;8.80;99.90;;;;;;5024475;28;20041;-75
2023/05/01 04:14:05;;;;;;;12.68;6.20;;;8.80;99.90;;;;;;5018999;28;20033;-75
2023/05/01 04:16:31;;;;;;;12.68;5.95;;;8.80;99.90;;;;;;5021596;28;20103;-76
2023/05/01 04:18:56;;;;;;;13.65;5.82;;;8.80;99.90;;;;;;5000619;28;20071;-75
2023/05/01 04:21:22;;;;;;;11.75;5.78;;;8.80;99.90;;;;;;5022772;28;20037;-75
2023/05/01 04:23:47;;;;;;;9.68;5.65;;;8.80;99.90;;;;;;5019667;28;20038;-75
2023/05/01 04:26:13;;;;;;;13.70;5.93;;;8.70;99.90;;;;;;5013021;28;20061;-75
2023/05/01 04:28:39;;;;;;;11.07;5.72;;;8.80;99.90;;;;;;5034680;28;20133;-74
2023/05/01 04:31:04;;;;;;;12.68;6.47;;;8.80;99.90;;;;;;5018210;28;20124;-74
2023/05/01 04:33:30;;;;;;;12.27;6.10;;;8.80;99.90;;;;;;5031065;28;20052;-73
2023/05/01 04:35:55;;;;;;;11.18;5.82;;;8.80;99.90;;;;;;5010740;28;20103;-74
2023/05/01 04:38:21;;;;;;;12.02;6.22;;;8.80;99.90;;;;;;5019120;28;20103;-74
2023/05/01 04:40:51;;;;;;;9.65;6.35;;;8.80;99.90;;;;;;5030582;28;20119;-74
2023/05/01 04:43:16;;;;;;;12.63;5.97;;;8.80;99.90;;;;;;5013877;28;20037;-73
2023/05/01 04:45:42;;;;;;;11.43;6.20;;;8.80;99.90;;;;;;5027655;28;20052;-73
2023/05/01 04:48:07;;;;;;;10.57;5.88;;;8.80;99.90;;;;;;5011264;28;20053;-73
2023/05/01 04:50:33;;;;;;;11.55;6.38;;;8.80;99.90;;;;;;5015419;28;20046;-73
2023/05/01 04:52:58;;;;;;;10.13;6.13;;;8.80;99.90;;;;;;5016381;28;20033;-73
2023/05/01 04:55:24;;;;;;;9.75;5.95;;;8.80;99.90;;;;;;5009758;28;20123;-73
2023/05/01 04:57:50;;;;;;;9.80;5.45;;;8.80;99.90;;;;;;5026828;28;20547;-73
2023/05/01 05:00:17;;;;;;;8.57;5.68;;;8.80;99.90;;;;;;5036345;28;20037;-73
2023/05/01 05:02:45;;;;;;;13.57;6.15;;;8.80;99.90;;;;;;5022580;28;20041;-73
2023/05/01 05:05:10;;;;;;;12.38;6.47;;;8.90;99.90;;;;;;5009490;28;20119;-73
2023/05/01 05:07:36;;;;;;;10.13;6.30;;;8.90;99.90;;;;;;5021670;28;20069;-73
2023/05/01 05:10:01;;;;;;;14.07;6.68;;;8.90;99.90;;;;;;5015077;28;20066;-74
2023/05/01 05:12:27;;;;;;;10.23;6.32;;;8.90;99.90;;;;;;5023204;28;20056;-74
2023/05/01 05:14:52;;;;;;;11.82;6.28;;;8.90;99.90;;;;;;5011871;28;20263;-74
2023/05/01 05:17:22;;;;;;;12.02;6.50;;;9.00;99.90;;;;;;5014695;28;20045;-74
2023/05/01 05:19:47;;;;;;;11.50;6.63;;;9.00;99.90;;;;;;5023849;28;20042;-74
2023/05/01 05:22:13;;;;;;;12.20;6.85;;;9.10;99.90;;;;;;5031408;28;20083;-73
2023/05/01 05:24:38;;;;;;;12.35;6.60;;;9.10;99.90;;;;;;5021217;28;20504;-74
2023/05/01 05:27:05;;;;;;;12.23;7.10;;;9.10;99.90;;;;;;5031722;28;20117;-74
2023/05/01 05:29:31;;;;;;;10.65;6.57;;;9.10;99.90;;;;;;5012704;28;20555;-73
2023/05/01 05:31:58;;;;;;;11.48;6.88;;;9.20;99.90;;;;;;5029096;28;20078;-74
2023/05/01 05:34:24;;;;;;;13.88;7.47;;;9.30;99.90;;;;;;5020911;28;20048;-74
2023/05/01 05:36:49;;;;;;;11.38;5.85;;;9.30;99.90;;;;;;5020805;28;20041;-74
2023/05/01 05:39:15;;;;;;;12.23;6.82;;;9.30;99.90;;;;;;5031674;28;20044;-74
2023/05/01 05:41:41;;;;;;;13.63;7.50;;;9.40;99.90;;;;;;5027974;28;20132;-74
2023/05/01 05:44:06;;;;;;;14.20;7.57;;;9.40;99.90;;;;;;5029442;28;20037;-74
2023/05/01 05:46:32;;;;;;;18.58;7.30;;;9.50;99.90;;;;;;5029652;28;20036;-73
2023/05/01 05:48:57;;;;;;;16.00;7.60;;;9.50;99.90;;;;;;5018476;28;20106;-74
2023/05/01 05:51:23;;;;;;;15.05;7.78;;;9.60;99.90;;;;;;5026289;28;20140;-73
2023/05/01 05:53:48;;;;;;;11.85;7.20;;;9.60;99.90;;;;;;5012717;28;20124;-73
2023/05/01 05:56:14;;;;;;;16.25;7.85;;;9.70;99.90;;;;;;5021586;28;20049;-74
2023/05/01 05:58:39;;;;;;;13.02;7.63;;;9.70;99.90;;;;;;5028296;28;20048;-74
2023/05/01 06:01:05;;;;;;;14.68;7.57;;;9.80;99.90;;;;;;5042717;28;20029;-74
2023/05/01 06:03:31;;;;;;;14.77;7.45;;;9.80;99.90;;;;;;5022629;28;20048;-73
2023/05/01 06:05:57;;;;;;;12.98;7.53;;;9.90;99.90;;;;;;5025364;28;20485;-74
2023/05/01 06:08:22;;;;;;;15.32;7.28;;;9.90;99.90;;;;;;5031379;28;20723;-74
2023/05/01 06:10:48;;;;;;;12.88;7.70;;;9.90;99.90;;;;;;5028069;28;20044;-73
2023/05/01 06:13:13;;;;;;;15.25;7.38;;;10.00;99.90;;;;;;5032011;28;20033;-73
2023/05/01 06:15:40;;;;;;;16.08;7.47;;;10.00;99.90;;;;;;5025175;28;20040;-74
2023/05/01 06:18:06;;;;;;;13.45;7.10;;;10.10;99.90;;;;;;5025877;28;20037;-74
2023/05/01 06:20:32;;;;;;;16.25;7.60;;;10.10;99.90;;;;;;5021299;28;20509;-74
2023/05/01 06:22:57;;;;;;;12.02;7.68;;;10.10;99.90;;;;;;5009979;28;20118;-74
2023/05/01 06:25:23;;;;;;;12.98;7.28;;;10.20;99.90;;;;;;5016273;28;20081;-73
2023/05/01 06:27:49;;;;;;;15.27;7.63;;;10.20;99.90;;;;;;5025303;28;20045;-74
2023/05/01 06:30:15;;;;;;;14.57;7.40;;;10.20;99.90;;;;;;5024341;28;20119;-74
2023/05/01 06:32:44;;;;;;;14.95;8.02;;;10.30;99.90;;;;;;4998520;28;20181;-74
2023/05/01 06:35:09;;;;;;;17.40;7.47;;;10.30;99.90;;;;;;5008328;28;20029;-74
2023/05/01 06:37:37;;;;;;;14.68;7.68;;;10.40;99.90;;;;;;5038269;28;20037;-74
2023/05/01 06:40:04;;;;;;;11.98;6.75;;;10.40;99.90;;;;;;5024708;28;20040;-74
2023/05/01 06:42:29;;;;;;;13.45;7.07;;;10.50;99.90;;;;;;5028509;28;20493;-74
2023/05/01 06:44:55;;;;;;;11.77;6.80;;;10.50;99.90;;;;;;5007135;28;20091;-74
2023/05/01 06:47:21;;;;;;;11.63;7.25;;;10.60;99.90;;;;;;5024915;28;20087;-73
2023/05/01 06:49:46;;;;;;;12.23;7.32;;;10.70;99.90;;;;;;5029044;28;20128;-74
2023/05/01 06:52:12;;;;;;;12.68;7.43;;;10.80;99.90;;;;;;5020665;28;20477;-73
2023/05/01 06:54:37;;;;;;;14.63;7.50;;;10.80;99.90;;;;;;5043808;28;20048;-74
2023/05/01 06:57:03;;;;;;;11.95;7.18;;;10.90;99.90;;;;;;5030947;28;20087;-74
2023/05/01 06:59:28;;;;;;;14.77;7.72;;;11.00;99.90;;;;;;5040020;28;20086;-74
2023/05/01 07:01:54;;;;;;;14.27;7.30;;;11.10;99.90;;;;;;5027907;28;20044;-74
2023/05/01 07:04:20;;;;;;;13.88;7.47;;;11.20;99.90;;;;;;5037058;28;20095;-74
2023/05/01 07:06:45;;;;;;;12.40;7.18;;;11.20;99.90;;;;;;5028176;28;20033;-74
2023/05/01 07:09:12;;;;;;;13.48;7.13;;;11.30;99.90;;;;;;5022493;28;20378;-74
2023/05/01 07:11:38;;;;;;;12.52;7.05;;;11.40;99.90;;;;;;5038412;28;20050;-74
2023/05/01 07:14:04;;;;;;;11.95;6.47;;;11.40;99.90;;;;;;5026516;28;20090;-74
2023/05/01 07:16:29;;;;;;;12.02;6.45;;;11.50;99.90;;;;;;5008040;28;20055;-74
2023/05/01 07:18:56;;;;;;;12.40;6.22;;;11.50;99.90;;;;;;5020838;28;20083;-74
2023/05/01 07:21:21;;;;;;;13.80;6.35;;;11.50;99.90;;;;;;5028134;28;20037;-74
2023/05/01 07:23:47;;;;;;;11.48;5.97;;;11.60;99.90;;;;;;5022410;28;20100;-74
2023/05/01 07:26:12;;;;;;;13.55;8.05;;;11.60;99.90;;;;;;5008305;28;20175;-74
2023/05/01 07:28:38;;;;;;;13.35;7.60;;;11.60;99.90;;;;;;5011530;28;20041;-75
2023/05/01 07:31:04;;;;;;;15.38;6.70;;;11.70;99.90;;;;;;5015537;28;20048;-74
2023/05/01 07:33:29;;;;;;;14.48;6.90;;;11.60;99.90;;;;;;5012485;28;20045;-74
2023/05/01 07:35:55;;;;;;;11.40;6.65;;;11.70;99.90;;;;;;5011892;28;20045;-74
2023/05/01 07:38:21;;;;;;;12.07;6.28;;;11.70;99.90;;;;;;5014348;28;20708;-74
2023/05/01 07:40:46;;;;;;;11.95;6.15;;;11.70;99.90;;;;;;5020830;28;20045;-75
2023/05/01 07:43:12;;;;;;;10.75;6.45;;;11.70;99.90;;;;;;5014189;28;20379;-73
2023/05/01 07:45:38;;;;;;;13.07;5.80;;;11.70;99.90;;;;;;5011319;28;20034;-74
2023/05/01 07:48:04;;;;;;;11.32;6.88;;;11.70;99.90;;;;;;5017323;28;20441;-74
2023/05/01 07:50:30;;;;;;;13.00;6.38;;;11.80;99.90;;;;;;5019825;28;20120;-74
2023/05/01 07:52:56;;;;;;;11.38;6.72;;;11.80;99.90;;;;;;5017062;28;20199;-74
2023/05/01 07:55:22;;;;;;;10.85;6.50;;;11.80;99.90;;;;;;5020139;28;20037;-74
2023/05/01 07:57:48;;;;;;;11.15;6.00;;;11.80;99.90;;;;;;5016322;28;20116;-73
2023/05/01 08:00:14;;;;;;;16.30;6.50;;;11.90;99.90;;;;;;5011114;28;20163;-74
2023/05/01 08:02:40;;;;;;;13.85;7.07;;;11.90;99.90;;;;;;5015568;28;20033;-74
2023/05/01 08:05:06;;;;;;;12.32;6.57;;;12.00;99.90;;;;;;5025423;28;20041;-74
2023/05/01 08:07:31;;;;;;;11.82;6.20;;;12.00;99.90;;;;;;5027068;28;20112;-74
2023/05/01 08:09:59;;;;;;;12.98;5.75;;;12.00;99.90;;;;;;5016653;28;20060;-75
2023/05/01 08:12:24;;;;;;;12.60;5.95;;;12.10;99.90;;;;;;5016875;28;20045;-74
2023/05/01 08:14:50;;;;;;;9.90;5.43;;;12.10;99.90;;;;;;5018476;28;20555;-74
2023/05/01 08:17:16;;;;;;;13.20;5.60;;;12.20;99.90;;;;;;5015844;28;20520;-74
2023/05/01 08:19:41;;;;;;;10.63;5.68;;;12.20;99.90;;;;;;5024571;28;20046;-74
2023/05/01 08:22:07;;;;;;;11.43;5.60;;;12.20;99.90;;;;;;5016151;28;20044;-74
2023/05/01 08:24:32;;;;;;;12.63;6.13;;;12.40;99.90;;;;;;5016219;28;20413;-74
2023/05/01 08:26:58;;;;;;;11.05;6.03;;;12.40;99.90;;;;;;4993542;28;20033;-74
2023/05/01 08:29:24;;;;;;;12.45;6.13;;;12.50;99.90;;;;;;5013550;28;20440;-76
2023/05/01 08:31:49;;;;;;;12.27;5.93;;;12.60;99.90;;;;;;5038439;28;20121;-75
2023/05/01 08:34:16;;;;;;;9.50;6.07;;;12.70;99.90;;;;;;5015590;28;20041;-75
2023/05/01 08:36:41;;;;;;;13.48;5.75;;;12.90;99.90;;;;;;5022963;28;20092;-75
2023/05/01 08:39:07;;;;;;;10.13;5.97;;;13.00;99.90;;;;;;5018046;28;20413;-75
2023/05/01 08:41:34;;;;;;;16.83;6.40;;;13.10;99.90;;;;;;5016759;28;20048;-75
2023/05/01 08:44:03;;;;;;;10.93;6.22;;;13.20;99.90;;;;;;5016787;28;20102;-75
2023/05/01 08:46:46;;;;;;;11.13;5.63;;;13.40;99.90;;;;;;5036288;28;20051;-75
2023/05/01 08:49:15;;;;;;;12.18;6.15;;;13.50;99.90;;;;;;5013516;28;20033;-74
2023/05/01 08:51:48;;;;;;;11.75;6.47;;;13.70;99.90;;;;;;5014098;28;20045;-75
2023/05/01 08:54:16;;;;;;;9.88;5.78;;;13.90;99.90;;;;;;4998857;28;20041;-73
2023/05/01 08:56:44;;;;;;;9.73;5.80;;;14.10;99.90;;;;;;5016442;28;20045;-73
2023/05/01 08:59:11;;;;;;;14.65;5.93;;;14.20;99.90;;;;;;5034472;28;20523;-73
2023/05/01 09:01:38;;;;;;;12.23;5.82;;;14.40;99.90;;;;;;5025943;28;20041;-73
2023/05/01 09:04:05;;;;;;;14.80;6.70;;;14.50;99.90;;;;;;5023023;28;20492;-74
2023/05/01 09:06:31;;;;;;;12.40;5.70;;;14.70;99.90;;;;;;5031624;28;20052;-74
2023/05/01 09:08:58;;;;;;;10.88;5.53;;;14.90;99.90;;;;;;5028499;28;20049;-75
2023/05/01 09:11:24;;;;;;;12.07;5.60;;;15.00;99.90;;;;;;5025829;28;20052;-74
2023/05/01 09:13:51;;;;;;;9.15;5.53;;;15.00;99.90;;;;;;5042911;28;20144;-74
2023/05/01 09:16:17;;;;;;;12.00;6.30;;;15.10;99.90;;;;;;5023772;28;20053;-74
2023/05/01 09:18:43;;;;;;;9.93;5.78;;;15.20;99.90;;;;;;5016455;28;21397;-74
2023/05/01 09:21:09;;;;;;;11.70;5.47;;;15.30;99.90;;;;;;5035974;28;20485;-74
2023/05/01 09:23:36;;;;;;;11.23;5.03;;;15.30;99.90;;;;;;5024809;28;20073;-74
2023/05/01 09:26:05;;;;;;;10.75;5.47;;;15.50;99.90;;;;;;5015834;28;20049;-74
2023/05/01 09:28:43;;;;;;;8.63;5.10;;;15.60;99.90;;;;;;5008806;28;20437;-74
2023/05/01 09:31:27;;;;;;;8.27;5.07;;;15.80;99.90;;;;;;5017732;28;20465;-74
2023/05/01 09:33:58;;;;;;;8.90;5.13;;;16.10;99.90;;;;;;5017737;28;20037;-74
2023/05/01 09:36:26;;;;;;;9.90;5.40;;;16.20;99.90;;;;;;5012639;28;20452;-75
2023/05/01 09:38:53;;;;;;;12.45;5.47;;;16.20;99.90;;;;;;4999241;28;20496;-74
2023/05/01 09:41:22;;;;;;;8.95;5.07;;;16.30;99.90;;;;;;5037255;28;20378;-75
2023/05/01 09:43:52;;;;;;;9.93;5.43;;;16.40;99.90;;;;;;4995044;28;20440;-74
2023/05/01 09:46:19;;;;;;;12.40;5.53;;;16.50;99.90;;;;;;5014871;28;20048;-74
2023/05/01 09:48:58;;;;;;;11.07;5.60;;;16.60;99.90;;;;;;5036000;28;20092;-74
2023/05/01 09:51:31;;;;;;;9.88;5.85;;;16.70;99.90;;;;;;5021465;28;20056;-75
2023/05/01 09:54:02;;;;;;;8.65;5.22;;;16.70;99.90;;;;;;4999165;28;20038;-75
2023/05/01 09:56:32;;;;;;;9.77;4.88;;;16.90;99.90;;;;;;5013612;28;20096;-73
2023/05/01 09:59:19;;;;;;;8.25;5.00;;;17.00;99.90;;;;;;5010805;28;20382;-74
2023/05/01 10:01:47;;;;;;;10.35;5.40;;;17.10;99.90;;;;;;5015243;28;20044;-74
2023/05/01 10:04:13;;;;;;;7.50;5.05;;;17.30;99.90;;;;;;5008393;28;20120;-73
2023/05/01 10:06:39;;;;;;;9.80;5.60;;;17.30;99.90;;;;;;5011346;28;20068;-73
2023/05/01 10:09:15;;;;;;;9.32;5.40;;;17.40;99.90;;;;;;5004897;28;20099;-73
2023/05/01 10:11:52;;;;;;;10.40;4.93;;;17.40;99.90;;;;;;5015619;28;20045;-73
2023/05/01 10:14:19;;;;;;;6.70;4.50;;;17.50;99.90;;;;;;5003705;28;20209;-74
2023/05/01 10:16:45;;;;;;;10.25;4.93;;;17.60;99.90;;;;;;5011668;28;20094;-74
2023/05/01 10:19:11;;;;;;;10.23;5.38;;;17.70;99.90;;;;;;5022891;28;20486;-74
2023/05/01 10:21:37;;;;;;;8.95;3.95;;;17.90;99.90;;;;;;5028738;28;20095;-74
2023/05/01 10:24:04;;;;;;;8.73;4.35;;;18.10;99.90;;;;;;5027087;28;20033;-74
2023/05/01 10:26:36;;;;;;;10.35;4.78;;;18.20;99.90;;;;;;5037822;28;20045;-74
2023/05/01 10:29:02;;;;;;;9.68;4.28;;;18.20;99.80;;;;;;5014571;28;20033;-74
2023/05/01 10:31:31;;;;;;;8.40;4.78;;;18.30;99.50;;;;;;5015468;28;20120;-74
2023/05/01 10:33:57;;;;;;;8.45;4.97;;;18.40;99.60;;;;;;5026263;28;20566;-75
2023/05/01 10:36:31;;;;;;;9.02;5.25;;;18.50;99.40;;;;;;5023178;28;20053;-75
2023/05/01 10:38:56;;;;;;;7.15;4.82;;;18.60;99.60;;;;;;5026569;28;20049;-74
2023/05/01 10:41:57;;;;;;;8.05;4.75;;;18.70;99.60;;;;;;5027188;28;20087;-75
2023/05/01 10:44:25;;;;;;;10.82;5.03;;;18.80;98.00;;;;;;5005674;28;20529;-74
2023/05/01 10:46:51;;;;;;;7.78;4.50;;;18.90;99.10;;;;;;5019181;28;20584;-74
2023/05/01 10:49:17;;;;;;;7.72;4.10;;;19.10;98.80;;;;;;5019786;28;20033;-76
2023/05/01 10:51:58;;;;;;;8.02;4.70;;;19.20;98.60;;;;;;5027619;28;20033;-75
2023/05/01 10:54:27;;;;;;;7.60;4.45;;;19.20;97.30;;;;;;5011239;28;20067;-75
2023/05/01 10:57:00;;;;;;;9.07;4.18;;;19.30;98.30;;;;;;4997214;28;20102;-75
2023/05/01 10:59:27;;;;;;;5.68;3.05;;;19.50;98.60;;;;;;5013844;28;20064;-74
2023/05/01 11:01:53;;;;;;;5.47;2.30;;;19.80;98.50;;;;;;5026712;28;20049;-74
2023/05/01 11:04:21;;;;;;;5.47;2.08;;;20.20;96.90;;;;;;5036694;28;20084;-75
2023/05/01 11:07:09;;;;;;;5.05;1.88;;;20.40;95.40;;;;;;5025423;28;20390;-74
2023/05/01 11:09:34;;;;;;;5.03;1.90;;;20.70;93.70;;;;;;5020154;28;20122;-76
2023/05/01 11:12:00;;;;;;;2.35;1.52;;;21.00;94.10;;;;;;5013502;28;20084;-75
2023/05/01 11:14:26;;;;;;;3.78;1.40;;;21.30;93.00;;;;;;5017679;28;20045;-77
2023/05/01 11:16:51;;;;;;;3.75;1.92;;;21.50;92.60;;;;;;5009596;28;20128;-74
2023/05/01 11:19:20;;;;;;;2.67;1.70;;;21.70;92.20;;;;;;5013826;28;20041;-75
2023/05/01 11:21:46;;;;;;;4.60;2.08;;;21.70;90.80;;;;;;5015744;28;20052;-75
2023/05/01 11:24:12;;;;;;;7.72;2.05;;;21.80;90.00;;;;;;5022141;28;20095;-75
2023/05/01 11:26:39;;;;;;;4.90;2.20;;;21.90;89.80;;;;;;5008610;28;20042;-76
2023/05/01 11:29:05;;;;;;;6.22;2.30;;;22.00;90.00;;;;;;4994826;28;20072;-76
2023/05/01 11:31:31;;;;;;;4.93;2.40;;;22.20;89.80;;;;;;5015915;28;20087;-75
2023/05/01 11:34:00;;;;;;;4.95;2.35;;;22.40;88.80;;;;;;5006532;28;20127;-75
2023/05/01 11:36:27;;;;;;;8.15;2.38;;;22.50;87.90;;;;;;5013809;28;20041;-76
2023/05/01 11:38:55;;;;;;;5.57;2.15;;;22.60;87.10;;;;;;5016893;28;20344;-75
2023/05/01 11:41:21;;;;;;;8.10;2.20;;;22.50;86.00;;;;;;5029971;28;20098;-76
2023/05/01 11:43:54;;;;;;;4.65;1.90;;;22.50;85.30;;;;;;5021998;28;20482;-75
2023/05/01 11:46:24;;;;;;;4.25;2.03;;;22.30;84.80;;;;;;5016414;28;20040;-76
2023/05/01 11:48:50;;;;;;;3.88;1.50;;;22.40;84.60;;;;;;5023460;28;20077;-76
2023/05/01 11:51:16;;;;;;;6.18;2.00;;;22.30;85.00;;;;;;5016600;28;20080;-76
2023/05/01 11:53:42;;;;;;;2.25;1.45;;;22.30;84.40;;;;;;5034172;28;20528;-75
2023/05/01 11:56:20;;;;;;;2.22;1.40;;;22.30;83.40;;;;;;5037010;28;20041;-76
2023/05/01 11:58:46;;;;;;;3.17;1.58;;;22.30;80.60;;;;;;5016489;28;20053;-76
2023/05/01 12:01:13;;;;;;;3.22;1.58;;;22.10;81.50;;;;;;5044151;28;20041;-77
2023/05/01 12:03:42;;;;;;;4.20;1.52;;;22.00;82.10;;;;;;5041808;28;20036;-75
2023/05/01 12:06:12;;;;;;;3.70;1.50;;;22.00;81.20;;;;;;5022614;28;20037;-76
2023/05/01 12:08:42;;;;;;;3.42;1.50;;;22.00;80.90;;;;;;5025775;28;20048;-75
2023/05/01 12:11:09;;;;;;;2.85;1.52;;;22.00;78.30;;;;;;5019677;28;20033;-77
2023/05/01 12:13:34;;;;;;;2.95;1.48;;;22.10;79.60;;;;;;5050331;28;20035;-75
2023/05/01 12:16:00;;;;;;;4.35;1.30;;;22.30;79.60;;;;;;5011645;28;20481;-75
2023/05/01 12:18:26;;;;;;;3.38;1.40;;;22.30;79.30;;;;;;5030745;28;20119;-75
2023/05/01 12:20:53;;;;;;;2.67;1.70;;;22.40;79.60;;;;;;5016983;28;20131;-75
2023/05/01 12:23:30;;;;;;;4.22;1.50;;;22.40;78.70;;;;;;5024409;28;20478;-75
2023/05/01 12:25:56;;;;;;;4.13;1.40;;;22.50;77.30;;;;;;5030321;28;20048;-75
2023/05/01 12:28:21;;;;;;;3.15;1.50;;;22.50;77.20;;;;;;5049501;28;20028;-76
2023/05/01 12:30:48;;;;;;;3.05;1.52;;;22.50;77.50;;;;;;5033760;28;20393;-75
2023/05/01 12:33:13;;;;;;;3.35;1.60;;;22.60;77.80;;;;;;5026086;28;20103;-76
2023/05/01 12:35:40;;;;;;;2.40;1.52;;;22.50;76.00;;;;;;5023266;28;20045;-76
2023/05/01 12:38:11;;;;;;;1.65;1.20;;;22.40;76.50;;;;;;5008904;28;20086;-75
2023/05/01 12:40:38;;;;;;;2.20;1.50;;;22.30;76.30;;;;;;5021249;28;20378;-75
2023/05/01 12:43:04;;;;;;;3.58;1.40;;;22.20;75.80;;;;;;5017570;28;20052;-75
2023/05/01 12:45:37;;;;;;;2.03;1.40;;;22.10;76.30;;;;;;5036445;28;20038;-76